Goodyear, AZ

2:51 PM MST on September 02, 2014 (GMT -0700)
I-10 & Estrella Pkwy. | Change Station
CLOSE
Current Station
Personal Weather Station
Location: Goodyear, AZ
Elevation: 1004 ft
Nearby Weather Stations

Elev 1004 ft 33.46 °N, 112.40 °W | Updated 5 minutes ago

Clear
Clear
108.9 °F
Feels Like 100 °F
N
0.0
Wind Variable Wind from West
Gusts 3.0 mph

Today
High -- | Low -- °F
--% Chance of Precip.
Yesterday
High -- | Low -- °F
Precip. -- in
6:04 AM 6:53 PM
First Quarter, 55% visible
Pressure 29.75 in
Visibility 10.0 miles
Clouds Clear
Heat Index 100 °F
Dew Point Not available.
Humidity Not available.
Rainfall -999.00 in
Snow Depth Not available.
UV 7 out of 12
Pollen 6.50 out of 12
PM2.5 Good
Flu Activity Not available.
METAR KGYR 022147Z VRB06KT 10SM SKC 40/06 A2975

More Conditions Fewer Conditions

Pressure 29.75 in
Visibility 10.0 miles
Clouds Clear
Heat Index 100 °F
Dew Point Not available.
Humidity Not available.
Rainfall -999.00 in
Snow Depth Not available.
UV 7 out of 12
Pollen 6.50 out of 12
PM2.5 Good
Flu Activity Not available.
METAR KGYR 022147Z VRB06KT 10SM SKC 40/06 A2975

More Conditions Fewer Conditions

10-Day Weather Forecast

Almanac

Astronomy

Sep. 02, 2014 Rise Set
Actual Time 6:04 AM MST 6:53 PM MST
Civil Twilight 5:39 AM MST 7:18 PM MST
Nautical Twilight 5:09 AM MST 7:48 PM MST
Astronomical Twilight 4:38 AM MST 8:19 PM MST
Moon 1:31 PM MST No Moon Set
Length of Visible Light 13h 39m
Length of Day
12h 49m
Tomorrow will be 1m 59s shorter.
First Quarter, 55% of the Moon is Illuminated
Today
First Quarter
Sep 8
Full
Sep 15
Last Quarter
Sep 24
New
Oct 1
First Quarter

Today's Extremes

State Highs State Lows

Community

WunderPhotos

Upload Photos

1,749,782 photos uploaded!

Nearby

Air Quality

  Air Quality AQ Index Pollutant
Yesterday Good
OZONE
Yesterday Good
PM10
Current Good
PM2.5
Tuesday Moderate
OZONE
Tuesday Good
PM10
Tuesday Good
CO
Wednesday Moderate
OZONE
Wednesday Moderate
PM10
Wednesday Good
CO
Thursday Moderate
PM2.5
Thursday Moderate
OZONE
Thursday Good
CO

Snow Depth

Station Depth Elevation
Workman Creek 0 in 6900 ft
Beaver Head 28 in 7990 ft

Earthquake Activity

City Distance Mag. Time & Date
No recent earthquake activity has been reported nearby.
Minimum magnitude displayed is 2.5.

Coastal Water Temperatures

Place Temperature
No Stations Reporting

Nearby Weather Stations